sensor_id;sensor_type;location;lat;lon;timestamp;P1;durP1;ratioP1;P2;durP2;ratioP2
21095;SDS011;10706;49.036;12.112;2023-03-01T00:01:58;27.17;;;11.90;;
21095;SDS011;10706;49.036;12.112;2023-03-01T00:04:24;25.87;;;11.00;;
21095;SDS011;10706;49.036;12.112;2023-03-01T00:06:50;27.73;;;11.77;;
21095;SDS011;10706;49.036;12.112;2023-03-01T00:09:16;28.60;;;12.13;;
21095;SDS011;10706;49.036;12.112;2023-03-01T00:11:42;26.63;;;10.70;;
21095;SDS011;10706;49.036;12.112;2023-03-01T00:14:09;29.57;;;11.60;;
21095;SDS011;10706;49.036;12.112;2023-03-01T00:16:36;33.50;;;12.07;;
21095;SDS011;10706;49.036;12.112;2023-03-01T00:19:05;29.50;;;11.73;;
21095;SDS011;10706;49.036;12.112;2023-03-01T00:21:37;30.37;;;12.00;;
21095;SDS011;10706;49.036;12.112;2023-03-01T00:24:03;32.47;;;12.50;;
21095;SDS011;10706;49.036;12.112;2023-03-01T00:26:29;25.57;;;10.37;;
21095;SDS011;10706;49.036;12.112;2023-03-01T00:28:56;30.20;;;11.57;;
21095;SDS011;10706;49.036;12.112;2023-03-01T00:31:24;32.97;;;12.23;;
21095;SDS011;10706;49.036;12.112;2023-03-01T00:33:54;32.33;;;12.33;;
21095;SDS011;10706;49.036;12.112;2023-03-01T00:36:23;29.80;;;11.43;;
21095;SDS011;10706;49.036;12.112;2023-03-01T00:38:52;28.67;;;12.57;;
21095;SDS011;10706;49.036;12.112;2023-03-01T00:41:18;32.30;;;12.43;;
21095;SDS011;10706;49.036;12.112;2023-03-01T00:43:47;26.77;;;11.97;;
21095;SDS011;10706;49.036;12.112;2023-03-01T00:46:14;32.07;;;12.90;;
21095;SDS011;10706;49.036;12.112;2023-03-01T00:48:45;30.37;;;12.33;;
21095;SDS011;10706;49.036;12.112;2023-03-01T00:53:47;31.30;;;12.17;;
21095;SDS011;10706;49.036;12.112;2023-03-01T00:56:16;28.10;;;12.17;;
21095;SDS011;10706;49.036;12.112;2023-03-01T00:58:42;28.87;;;11.97;;
21095;SDS011;10706;49.036;12.112;2023-03-01T01:01:09;27.20;;;11.73;;
21095;SDS011;10706;49.036;12.112;2023-03-01T01:03:49;29.73;;;12.73;;
21095;SDS011;10706;49.036;12.112;2023-03-01T01:06:19;30.37;;;11.73;;
21095;SDS011;10706;49.036;12.112;2023-03-01T01:08:49;28.10;;;12.13;;
21095;SDS011;10706;49.036;12.112;2023-03-01T01:11:15;30.30;;;12.53;;
21095;SDS011;10706;49.036;12.112;2023-03-01T01:13:43;32.30;;;11.80;;
21095;SDS011;10706;49.036;12.112;2023-03-01T01:16:11;31.93;;;12.43;;
21095;SDS011;10706;49.036;12.112;2023-03-01T01:18:38;28.30;;;12.03;;
21095;SDS011;10706;49.036;12.112;2023-03-01T01:21:08;27.57;;;12.03;;
21095;SDS011;10706;49.036;12.112;2023-03-01T01:23:39;32.20;;;12.07;;
21095;SDS011;10706;49.036;12.112;2023-03-01T01:26:08;25.83;;;11.07;;
21095;SDS011;10706;49.036;12.112;2023-03-01T01:28:43;31.77;;;13.30;;
21095;SDS011;10706;49.036;12.112;2023-03-01T01:31:09;27.37;;;12.27;;
21095;SDS011;10706;49.036;12.112;2023-03-01T01:33:35;30.83;;;12.93;;
21095;SDS011;10706;49.036;12.112;2023-03-01T01:36:02;28.53;;;11.20;;
21095;SDS011;10706;49.036;12.112;2023-03-01T01:38:32;30.40;;;11.30;;
21095;SDS011;10706;49.036;12.112;2023-03-01T01:40:58;32.17;;;11.43;;
21095;SDS011;10706;49.036;12.112;2023-03-01T01:43:28;28.77;;;11.17;;
21095;SDS011;10706;49.036;12.112;2023-03-01T01:46:06;29.60;;;12.30;;
21095;SDS011;10706;49.036;12.112;2023-03-01T01:49:38;29.60;;;12.07;;
21095;SDS011;10706;49.036;12.112;2023-03-01T01:51:49;32.23;;;12.97;;
21095;SDS011;10706;49.036;12.112;2023-03-01T01:54:28;34.47;;;12.43;;
21095;SDS011;10706;49.036;12.112;2023-03-01T01:57:11;25.30;;;10.53;;
21095;SDS011;10706;49.036;12.112;2023-03-01T01:59:45;27.43;;;11.23;;
21095;SDS011;10706;49.036;12.112;2023-03-01T02:02:20;27.70;;;12.03;;
21095;SDS011;10706;49.036;12.112;2023-03-01T02:04:47;24.70;;;12.20;;
21095;SDS011;10706;49.036;12.112;2023-03-01T02:07:19;28.60;;;11.87;;
21095;SDS011;10706;49.036;12.112;2023-03-01T02:09:49;29.90;;;10.97;;
21095;SDS011;10706;49.036;12.112;2023-03-01T02:12:17;30.67;;;12.00;;
21095;SDS011;10706;49.036;12.112;2023-03-01T02:14:47;30.90;;;12.30;;
21095;SDS011;10706;49.036;12.112;2023-03-01T02:17:13;30.57;;;11.13;;
21095;SDS011;10706;49.036;12.112;2023-03-01T02:19:44;29.90;;;11.30;;
21095;SDS011;10706;49.036;12.112;2023-03-01T02:22:39;30.60;;;11.47;;
21095;SDS011;10706;49.036;12.112;2023-03-01T02:30:39;28.63;;;11.17;;
21095;SDS011;10706;49.036;12.112;2023-03-01T02:33:26;28.50;;;11.30;;
21095;SDS011;10706;49.036;12.112;2023-03-01T02:35:52;33.97;;;12.13;;
21095;SDS011;10706;49.036;12.112;2023-03-01T02:38:21;26.30;;;10.30;;
21095;SDS011;10706;49.036;12.112;2023-03-01T02:40:48;28.30;;;10.43;;
21095;SDS011;10706;49.036;12.112;2023-03-01T02:43:16;29.03;;;11.37;;
21095;SDS011;10706;49.036;12.112;2023-03-01T02:45:48;28.17;;;12.43;;
21095;SDS011;10706;49.036;12.112;2023-03-01T02:48:18;29.57;;;12.47;;
21095;SDS011;10706;49.036;12.112;2023-03-01T02:56:43;30.23;;;11.57;;
21095;SDS011;10706;49.036;12.112;2023-03-01T02:59:13;29.83;;;11.20;;
21095;SDS011;10706;49.036;12.112;2023-03-01T03:01:40;28.97;;;11.90;;
21095;SDS011;10706;49.036;12.112;2023-03-01T03:04:07;25.73;;;10.33;;
21095;SDS011;10706;49.036;12.112;2023-03-01T03:06:41;32.67;;;11.37;;
21095;SDS011;10706;49.036;12.112;2023-03-01T03:09:12;27.53;;;11.93;;
21095;SDS011;10706;49.036;12.112;2023-03-01T03:11:39;29.23;;;10.97;;
21095;SDS011;10706;49.036;12.112;2023-03-01T03:14:06;29.30;;;10.83;;
21095;SDS011;10706;49.036;12.112;2023-03-01T03:16:44;30.73;;;10.73;;
21095;SDS011;10706;49.036;12.112;2023-03-01T03:19:15;27.63;;;12.27;;
21095;SDS011;10706;49.036;12.112;2023-03-01T03:21:43;29.70;;;11.13;;
21095;SDS011;10706;49.036;12.112;2023-03-01T03:24:09;30.37;;;11.40;;
21095;SDS011;10706;49.036;12.112;2023-03-01T03:26:34;28.20;;;11.87;;
21095;SDS011;10706;49.036;12.112;2023-03-01T03:29:00;31.17;;;11.97;;
21095;SDS011;10706;49.036;12.112;2023-03-01T03:31:26;26.97;;;10.47;;
21095;SDS011;10706;49.036;12.112;2023-03-01T03:33:52;29.03;;;12.27;;
21095;SDS011;10706;49.036;12.112;2023-03-01T03:36:19;29.90;;;12.70;;
21095;SDS011;10706;49.036;12.112;2023-03-01T03:38:48;29.33;;;10.30;;
21095;SDS011;10706;49.036;12.112;2023-03-01T03:41:14;27.07;;;11.60;;
21095;SDS011;10706;49.036;12.112;2023-03-01T03:43:41;30.37;;;11.70;;
21095;SDS011;10706;49.036;12.112;2023-03-01T03:46:09;26.97;;;11.00;;
21095;SDS011;10706;49.036;12.112;2023-03-01T03:48:37;32.10;;;11.40;;
21095;SDS011;10706;49.036;12.112;2023-03-01T03:51:12;25.50;;;11.30;;
21095;SDS011;10706;49.036;12.112;2023-03-01T03:53:40;34.00;;;12.57;;
21095;SDS011;10706;49.036;12.112;2023-03-01T03:56:06;29.00;;;11.33;;
21095;SDS011;10706;49.036;12.112;2023-03-01T03:58:33;29.97;;;11.73;;
21095;SDS011;10706;49.036;12.112;2023-03-01T04:00:59;25.07;;;10.77;;
21095;SDS011;10706;49.036;12.112;2023-03-01T04:03:26;28.80;;;10.83;;
21095;SDS011;10706;49.036;12.112;2023-03-01T04:05:53;23.63;;;11.00;;
21095;SDS011;10706;49.036;12.112;2023-03-01T04:08:19;29.40;;;11.63;;
21095;SDS011;10706;49.036;12.112;2023-03-01T04:10:48;26.37;;;10.63;;
21095;SDS011;10706;49.036;12.112;2023-03-01T04:13:18;30.30;;;12.13;;
21095;SDS011;10706;49.036;12.112;2023-03-01T04:15:50;29.47;;;12.27;;
21095;SDS011;10706;49.036;12.112;2023-03-01T04:18:18;33.03;;;12.97;;
21095;SDS011;10706;49.036;12.112;2023-03-01T04:20:47;28.07;;;11.70;;
21095;SDS011;10706;49.036;12.112;2023-03-01T04:23:14;33.67;;;11.57;;
21095;SDS011;10706;49.036;12.112;2023-03-01T04:25:52;30.13;;;11.03;;
21095;SDS011;10706;49.036;12.112;2023-03-01T04:31:08;28.43;;;11.37;;
21095;SDS011;10706;49.036;12.112;2023-03-01T04:33:43;29.93;;;13.87;;
21095;SDS011;10706;49.036;12.112;2023-03-01T04:36:17;30.97;;;13.60;;
21095;SDS011;10706;49.036;12.112;2023-03-01T04:38:45;36.33;;;13.63;;
21095;SDS011;10706;49.036;12.112;2023-03-01T04:41:15;26.20;;;12.03;;
21095;SDS011;10706;49.036;12.112;2023-03-01T04:43:43;33.97;;;11.80;;
21095;SDS011;10706;49.036;12.112;2023-03-01T04:46:11;28.70;;;10.23;;
21095;SDS011;10706;49.036;12.112;2023-03-01T04:48:40;25.17;;;11.67;;
21095;SDS011;10706;49.036;12.112;2023-03-01T04:51:08;26.03;;;10.70;;
21095;SDS011;10706;49.036;12.112;2023-03-01T04:53:34;29.27;;;11.50;;
21095;SDS011;10706;49.036;12.112;2023-03-01T04:56:03;31.37;;;11.90;;
21095;SDS011;10706;49.036;12.112;2023-03-01T04:58:29;30.77;;;11.03;;
21095;SDS011;10706;49.036;12.112;2023-03-01T05:00:55;30.50;;;11.73;;
21095;SDS011;10706;49.036;12.112;2023-03-01T05:03:21;33.03;;;11.70;;
21095;SDS011;10706;49.036;12.112;2023-03-01T05:05:48;42.20;;;17.63;;
21095;SDS011;10706;49.036;12.112;2023-03-01T05:08:16;44.43;;;19.23;;
21095;SDS011;10706;49.036;12.112;2023-03-01T05:10:43;48.33;;;20.17;;
21095;SDS011;10706;49.036;12.112;2023-03-01T05:13:11;55.83;;;22.57;;
21095;SDS011;10706;49.036;12.112;2023-03-01T05:15:38;41.43;;;19.50;;
21095;SDS011;10706;49.036;12.112;2023-03-01T05:18:04;42.17;;;18.30;;
21095;SDS011;10706;49.036;12.112;2023-03-01T05:20:36;38.20;;;18.53;;
21095;SDS011;10706;49.036;12.112;2023-03-01T05:23:02;36.27;;;17.27;;
21095;SDS011;10706;49.036;12.112;2023-03-01T05:25:30;33.33;;;12.60;;
21095;SDS011;10706;49.036;12.112;2023-03-01T05:27:59;35.27;;;13.63;;
21095;SDS011;10706;49.036;12.112;2023-03-01T05:30:29;33.00;;;12.07;;
21095;SDS011;10706;49.036;12.112;2023-03-01T05:32:57;32.93;;;12.33;;
21095;SDS011;10706;49.036;12.112;2023-03-01T05:35:24;29.73;;;12.23;;
21095;SDS011;10706;49.036;12.112;2023-03-01T05:37:50;36.73;;;13.10;;
21095;SDS011;10706;49.036;12.112;2023-03-01T05:40:20;31.80;;;13.03;;
21095;SDS011;10706;49.036;12.112;2023-03-01T05:42:50;35.73;;;12.57;;
21095;SDS011;10706;49.036;12.112;2023-03-01T05:45:21;37.17;;;14.13;;
21095;SDS011;10706;49.036;12.112;2023-03-01T05:47:48;27.53;;;11.40;;
21095;SDS011;10706;49.036;12.112;2023-03-01T05:50:22;31.83;;;12.20;;
21095;SDS011;10706;49.036;12.112;2023-03-01T05:52:58;35.67;;;13.40;;
21095;SDS011;10706;49.036;12.112;2023-03-01T05:55:27;28.00;;;11.40;;
21095;SDS011;10706;49.036;12.112;2023-03-01T05:57:55;29.33;;;11.73;;
21095;SDS011;10706;49.036;12.112;2023-03-01T06:00:23;36.87;;;13.87;;
21095;SDS011;10706;49.036;12.112;2023-03-01T06:02:49;39.87;;;14.57;;
21095;SDS011;10706;49.036;12.112;2023-03-01T06:05:17;56.70;;;21.50;;
21095;SDS011;10706;49.036;12.112;2023-03-01T06:07:43;39.63;;;15.87;;
21095;SDS011;10706;49.036;12.112;2023-03-01T06:10:10;39.77;;;16.20;;
21095;SDS011;10706;49.036;12.112;2023-03-01T06:12:37;34.57;;;15.10;;
21095;SDS011;10706;49.036;12.112;2023-03-01T06:15:05;38.50;;;14.00;;
21095;SDS011;10706;49.036;12.112;2023-03-01T06:17:34;32.20;;;13.13;;
21095;SDS011;10706;49.036;12.112;2023-03-01T06:20:06;35.80;;;14.10;;
21095;SDS011;10706;49.036;12.112;2023-03-01T06:22:40;36.90;;;14.43;;
21095;SDS011;10706;49.036;12.112;2023-03-01T06:25:07;29.27;;;12.67;;
21095;SDS011;10706;49.036;12.112;2023-03-01T06:27:33;34.77;;;12.57;;
21095;SDS011;10706;49.036;12.112;2023-03-01T06:29:59;32.97;;;13.33;;
21095;SDS011;10706;49.036;12.112;2023-03-01T06:32:25;39.40;;;13.23;;
21095;SDS011;10706;49.036;12.112;2023-03-01T06:34:51;30.43;;;12.77;;
21095;SDS011;10706;49.036;12.112;2023-03-01T06:37:16;30.37;;;12.50;;
21095;SDS011;10706;49.036;12.112;2023-03-01T06:39:42;29.50;;;12.83;;
21095;SDS011;10706;49.036;12.112;2023-03-01T06:42:08;31.93;;;12.87;;
21095;SDS011;10706;49.036;12.112;2023-03-01T06:44:35;28.63;;;12.03;;
21095;SDS011;10706;49.036;12.112;2023-03-01T06:47:02;31.00;;;12.27;;
21095;SDS011;10706;49.036;12.112;2023-03-01T06:49:28;36.17;;;11.77;;
21095;SDS011;10706;49.036;12.112;2023-03-01T06:51:55;32.30;;;11.90;;
21095;SDS011;10706;49.036;12.112;2023-03-01T06:54:21;34.77;;;12.50;;
21095;SDS011;10706;49.036;12.112;2023-03-01T06:56:48;34.03;;;12.57;;
21095;SDS011;10706;49.036;12.112;2023-03-01T06:59:15;28.33;;;12.13;;
21095;SDS011;10706;49.036;12.112;2023-03-01T07:01:42;27.83;;;12.33;;
21095;SDS011;10706;49.036;12.112;2023-03-01T07:04:08;32.37;;;13.53;;
21095;SDS011;10706;49.036;12.112;2023-03-01T07:06:35;32.73;;;12.50;;
21095;SDS011;10706;49.036;12.112;2023-03-01T07:09:00;35.83;;;13.77;;
21095;SDS011;10706;49.036;12.112;2023-03-01T07:11:26;32.37;;;13.83;;
21095;SDS011;10706;49.036;12.112;2023-03-01T07:13:52;32.00;;;12.10;;
21095;SDS011;10706;49.036;12.112;2023-03-01T07:16:18;33.03;;;13.63;;
21095;SDS011;10706;49.036;12.112;2023-03-01T07:18:45;33.17;;;12.67;;
21095;SDS011;10706;49.036;12.112;2023-03-01T07:21:12;33.07;;;13.03;;
21095;SDS011;10706;49.036;12.112;2023-03-01T07:23:39;32.30;;;11.53;;
21095;SDS011;10706;49.036;12.112;2023-03-01T07:26:05;46.53;;;16.47;;
21095;SDS011;10706;49.036;12.112;2023-03-01T07:28:31;30.83;;;12.37;;
21095;SDS011;10706;49.036;12.112;2023-03-01T07:31:04;31.17;;;12.47;;
21095;SDS011;10706;49.036;12.112;2023-03-01T07:33:31;33.30;;;13.53;;
21095;SDS011;10706;49.036;12.112;2023-03-01T07:35:58;31.53;;;14.03;;
21095;SDS011;10706;49.036;12.112;2023-03-01T07:38:25;32.17;;;13.50;;
21095;SDS011;10706;49.036;12.112;2023-03-01T07:40:52;30.87;;;13.23;;
21095;SDS011;10706;49.036;12.112;2023-03-01T07:43:17;29.63;;;11.47;;
21095;SDS011;10706;49.036;12.112;2023-03-01T07:45:44;30.73;;;12.97;;
21095;SDS011;10706;49.036;12.112;2023-03-01T07:48:09;31.07;;;12.40;;
21095;SDS011;10706;49.036;12.112;2023-03-01T07:50:35;32.03;;;14.10;;
21095;SDS011;10706;49.036;12.112;2023-03-01T07:53:01;26.13;;;10.90;;
21095;SDS011;10706;49.036;12.112;2023-03-01T07:55:27;34.77;;;13.73;;
21095;SDS011;10706;49.036;12.112;2023-03-01T07:57:53;27.73;;;12.27;;
21095;SDS011;10706;49.036;12.112;2023-03-01T08:00:19;33.50;;;12.83;;
21095;SDS011;10706;49.036;12.112;2023-03-01T08:02:45;32.77;;;12.90;;
21095;SDS011;10706;49.036;12.112;2023-03-01T08:05:10;30.63;;;13.40;;
21095;SDS011;10706;49.036;12.112;2023-03-01T08:07:36;30.00;;;12.27;;
21095;SDS011;10706;49.036;12.112;2023-03-01T08:10:02;31.80;;;12.80;;
21095;SDS011;10706;49.036;12.112;2023-03-01T08:12:28;36.10;;;14.13;;
21095;SDS011;10706;49.036;12.112;2023-03-01T08:14:54;30.60;;;12.80;;
21095;SDS011;10706;49.036;12.112;2023-03-01T08:17:20;28.47;;;10.70;;
21095;SDS011;10706;49.036;12.112;2023-03-01T08:19:46;29.27;;;13.00;;
21095;SDS011;10706;49.036;12.112;2023-03-01T08:22:11;28.60;;;10.87;;
21095;SDS011;10706;49.036;12.112;2023-03-01T08:24:37;30.67;;;12.07;;
21095;SDS011;10706;49.036;12.112;2023-03-01T08:27:03;35.57;;;13.20;;
21095;SDS011;10706;49.036;12.112;2023-03-01T08:29:32;27.93;;;12.63;;
21095;SDS011;10706;49.036;12.112;2023-03-01T08:31:58;33.50;;;12.47;;
21095;SDS011;10706;49.036;12.112;2023-03-01T08:34:24;28.07;;;11.47;;
21095;SDS011;10706;49.036;12.112;2023-03-01T08:36:50;30.33;;;12.67;;
21095;SDS011;10706;49.036;12.112;2023-03-01T08:39:17;32.77;;;13.13;;
21095;SDS011;10706;49.036;12.112;2023-03-01T08:41:45;33.83;;;14.13;;
21095;SDS011;10706;49.036;12.112;2023-03-01T08:44:12;28.33;;;12.20;;
21095;SDS011;10706;49.036;12.112;2023-03-01T08:46:41;25.50;;;10.60;;
21095;SDS011;10706;49.036;12.112;2023-03-01T08:49:12;31.60;;;13.17;;
21095;SDS011;10706;49.036;12.112;2023-03-01T08:51:41;24.90;;;11.30;;
21095;SDS011;10706;49.036;12.112;2023-03-01T08:54:15;27.30;;;11.97;;
21095;SDS011;10706;49.036;12.112;2023-03-01T08:56:46;30.53;;;12.70;;
21095;SDS011;10706;49.036;12.112;2023-03-01T08:59:12;26.33;;;11.17;;
21095;SDS011;10706;49.036;12.112;2023-03-01T09:01:40;27.20;;;12.20;;
21095;SDS011;10706;49.036;12.112;2023-03-01T09:04:08;27.93;;;11.07;;
21095;SDS011;10706;49.036;12.112;2023-03-01T09:06:34;28.43;;;12.27;;
21095;SDS011;10706;49.036;12.112;2023-03-01T09:09:01;28.93;;;12.33;;
21095;SDS011;10706;49.036;12.112;2023-03-01T09:11:29;24.23;;;9.83;;
21095;SDS011;10706;49.036;12.112;2023-03-01T09:13:55;26.00;;;11.17;;
21095;SDS011;10706;49.036;12.112;2023-03-01T09:16:22;32.17;;;11.87;;
21095;SDS011;10706;49.036;12.112;2023-03-01T09:18:52;25.83;;;11.77;;
21095;SDS011;10706;49.036;12.112;2023-03-01T09:21:20;28.33;;;12.23;;
21095;SDS011;10706;49.036;12.112;2023-03-01T09:23:48;28.60;;;11.03;;
21095;SDS011;10706;49.036;12.112;2023-03-01T09:26:15;26.07;;;11.00;;
21095;SDS011;10706;49.036;12.112;2023-03-01T09:28:47;25.30;;;11.53;;
21095;SDS011;10706;49.036;12.112;2023-03-01T09:31:15;26.77;;;11.33;;
21095;SDS011;10706;49.036;12.112;2023-03-01T09:33:42;24.80;;;11.90;;
21095;SDS011;10706;49.036;12.112;2023-03-01T09:36:17;31.40;;;11.93;;
21095;SDS011;10706;49.036;12.112;2023-03-01T09:38:47;28.53;;;11.43;;
21095;SDS011;10706;49.036;12.112;2023-03-01T09:41:26;28.53;;;12.37;;
21095;SDS011;10706;49.036;12.112;2023-03-01T09:46:56;30.23;;;12.53;;
21095;SDS011;10706;49.036;12.112;2023-03-01T09:49:24;30.03;;;11.27;;
21095;SDS011;10706;49.036;12.112;2023-03-01T09:55:12;27.57;;;11.67;;
21095;SDS011;10706;49.036;12.112;2023-03-01T09:57:55;25.10;;;11.63;;
21095;SDS011;10706;49.036;12.112;2023-03-01T10:00:56;28.67;;;12.23;;
21095;SDS011;10706;49.036;12.112;2023-03-01T10:03:30;27.33;;;12.67;;
21095;SDS011;10706;49.036;12.112;2023-03-01T10:08:58;27.00;;;11.30;;
21095;SDS011;10706;49.036;12.112;2023-03-01T10:11:36;26.93;;;12.30;;
21095;SDS011;10706;49.036;12.112;2023-03-01T10:16:48;27.40;;;12.37;;
21095;SDS011;10706;49.036;12.112;2023-03-01T10:22:00;23.93;;;9.60;;
21095;SDS011;10706;49.036;12.112;2023-03-01T10:24:36;25.27;;;11.27;;
21095;SDS011;10706;49.036;12.112;2023-03-01T10:27:07;23.13;;;10.80;;
21095;SDS011;10706;49.036;12.112;2023-03-01T10:32:56;23.93;;;9.20;;
21095;SDS011;10706;49.036;12.112;2023-03-01T10:35:27;24.83;;;9.87;;
21095;SDS011;10706;49.036;12.112;2023-03-01T10:38:04;25.90;;;10.87;;
21095;SDS011;10706;49.036;12.112;2023-03-01T10:40:34;25.73;;;11.80;;
21095;SDS011;10706;49.036;12.112;2023-03-01T10:43:05;27.47;;;11.67;;
21095;SDS011;10706;49.036;12.112;2023-03-01T10:45:33;27.27;;;11.80;;
21095;SDS011;10706;49.036;12.112;2023-03-01T10:48:11;29.07;;;11.77;;
21095;SDS011;10706;49.036;12.112;2023-03-01T10:50:44;30.50;;;12.83;;
21095;SDS011;10706;49.036;12.112;2023-03-01T10:53:22;27.20;;;11.87;;
21095;SDS011;10706;49.036;12.112;2023-03-01T10:56:05;27.43;;;12.00;;
21095;SDS011;10706;49.036;12.112;2023-03-01T10:58:39;25.73;;;10.87;;
21095;SDS011;10706;49.036;12.112;2023-03-01T11:01:27;27.50;;;11.47;;
21095;SDS011;10706;49.036;12.112;2023-03-01T11:06:31;28.77;;;11.67;;
21095;SDS011;10706;49.036;12.112;2023-03-01T11:09:18;31.83;;;13.33;;
21095;SDS011;10706;49.036;12.112;2023-03-01T11:11:52;24.07;;;11.50;;
21095;SDS011;10706;49.036;12.112;2023-03-01T11:14:25;30.57;;;10.70;;
21095;SDS011;10706;49.036;12.112;2023-03-01T11:16:58;25.90;;;11.33;;
21095;SDS011;10706;49.036;12.112;2023-03-01T11:23:02;27.17;;;10.33;;
21095;SDS011;10706;49.036;12.112;2023-03-01T11:25:39;28.57;;;11.60;;
21095;SDS011;10706;49.036;12.112;2023-03-01T11:28:14;25.10;;;11.10;;
21095;SDS011;10706;49.036;12.112;2023-03-01T11:30:51;26.40;;;11.83;;
21095;SDS011;10706;49.036;12.112;2023-03-01T11:36:23;22.63;;;9.87;;
21095;SDS011;10706;49.036;12.112;2023-03-01T11:42:20;28.03;;;11.77;;
21095;SDS011;10706;49.036;12.112;2023-03-01T11:45:11;26.17;;;11.63;;
21095;SDS011;10706;49.036;12.112;2023-03-01T11:50:44;24.03;;;11.00;;
21095;SDS011;10706;49.036;12.112;2023-03-01T11:55:54;21.20;;;10.13;;
21095;SDS011;10706;49.036;12.112;2023-03-01T11:59:11;25.63;;;11.47;;
21095;SDS011;10706;49.036;12.112;2023-03-01T12:10:30;27.30;;;12.07;;
21095;SDS011;10706;49.036;12.112;2023-03-01T12:13:50;26.63;;;11.97;;
21095;SDS011;10706;49.036;12.112;2023-03-01T12:16:50;25.13;;;10.90;;
21095;SDS011;10706;49.036;12.112;2023-03-01T12:25:38;26.33;;;11.37;;
21095;SDS011;10706;49.036;12.112;2023-03-01T12:34:21;26.57;;;11.57;;
21095;SDS011;10706;49.036;12.112;2023-03-01T12:41:01;26.03;;;11.83;;
21095;SDS011;10706;49.036;12.112;2023-03-01T12:49:19;24.42;;;10.50;;
21095;SDS011;10706;49.036;12.112;2023-03-01T12:51:58;22.75;;;10.30;;
21095;SDS011;10706;49.036;12.112;2023-03-01T12:54:43;22.92;;;10.63;;
21095;SDS011;10706;49.036;12.112;2023-03-01T13:03:33;24.27;;;10.73;;
21095;SDS011;10706;49.036;12.112;2023-03-01T13:12:43;24.33;;;10.52;;
21095;SDS011;10706;49.036;12.112;2023-03-01T13:17:48;27.38;;;12.20;;
21095;SDS011;10706;49.036;12.112;2023-03-01T13:20:54;23.65;;;11.05;;
21095;SDS011;10706;49.036;12.112;2023-03-01T13:33:47;24.38;;;11.48;;
21095;SDS011;10706;49.036;12.112;2023-03-01T13:38:56;22.50;;;8.77;;
21095;SDS011;10706;49.036;12.112;2023-03-01T13:42:25;23.13;;;11.38;;
21095;SDS011;10706;49.036;12.112;2023-03-01T13:46:58;21.17;;;10.77;;
21095;SDS011;10706;49.036;12.112;2023-03-01T13:49:31;22.60;;;10.27;;
21095;SDS011;10706;49.036;12.112;2023-03-01T13:52:35;24.10;;;10.65;;
21095;SDS011;10706;49.036;12.112;2023-03-01T13:55:14;25.75;;;11.80;;
21095;SDS011;10706;49.036;12.112;2023-03-01T13:58:30;25.85;;;10.48;;
21095;SDS011;10706;49.036;12.112;2023-03-01T14:01:18;27.02;;;11.38;;
21095;SDS011;10706;49.036;12.112;2023-03-01T14:04:22;28.52;;;11.65;;
21095;SDS011;10706;49.036;12.112;2023-03-01T14:07:10;22.70;;;11.02;;
21095;SDS011;10706;49.036;12.112;2023-03-01T14:09:45;24.40;;;11.57;;
21095;SDS011;10706;49.036;12.112;2023-03-01T14:12:25;23.90;;;10.65;;
21095;SDS011;10706;49.036;12.112;2023-03-01T14:17:57;28.00;;;11.52;;
21095;SDS011;10706;49.036;12.112;2023-03-01T14:20:32;24.58;;;11.30;;
21095;SDS011;10706;49.036;12.112;2023-03-01T14:23:17;22.98;;;10.52;;
21095;SDS011;10706;49.036;12.112;2023-03-01T14:25:53;24.13;;;10.80;;
21095;SDS011;10706;49.036;12.112;2023-03-01T14:28:26;22.50;;;9.57;;
21095;SDS011;10706;49.036;12.112;2023-03-01T14:30:56;21.15;;;9.75;;
21095;SDS011;10706;49.036;12.112;2023-03-01T14:33:25;21.13;;;10.35;;
21095;SDS011;10706;49.036;12.112;2023-03-01T14:36:08;22.20;;;10.07;;
21095;SDS011;10706;49.036;12.112;2023-03-01T14:38:44;23.13;;;9.73;;
21095;SDS011;10706;49.036;12.112;2023-03-01T14:43:57;21.05;;;9.98;;
21095;SDS011;10706;49.036;12.112;2023-03-01T14:46:29;22.08;;;10.07;;
21095;SDS011;10706;49.036;12.112;2023-03-01T14:51:53;24.33;;;10.80;;
21095;SDS011;10706;49.036;12.112;2023-03-01T14:57:03;21.88;;;10.27;;
21095;SDS011;10706;49.036;12.112;2023-03-01T14:59:29;26.65;;;11.95;;
21095;SDS011;10706;49.036;12.112;2023-03-01T15:01:57;24.48;;;10.52;;
21095;SDS011;10706;49.036;12.112;2023-03-01T15:04:24;20.05;;;10.23;;
21095;SDS011;10706;49.036;12.112;2023-03-01T15:06:55;23.63;;;10.75;;
21095;SDS011;10706;49.036;12.112;2023-03-01T15:09:29;25.03;;;11.13;;
21095;SDS011;10706;49.036;12.112;2023-03-01T15:11:59;24.13;;;11.93;;
21095;SDS011;10706;49.036;12.112;2023-03-01T15:14:38;25.30;;;11.97;;
21095;SDS011;10706;49.036;12.112;2023-03-01T15:17:16;24.87;;;10.70;;
21095;SDS011;10706;49.036;12.112;2023-03-01T15:20:01;25.83;;;11.83;;
21095;SDS011;10706;49.036;12.112;2023-03-01T15:22:42;26.57;;;11.47;;
21095;SDS011;10706;49.036;12.112;2023-03-01T15:25:16;24.97;;;11.40;;
21095;SDS011;10706;49.036;12.112;2023-03-01T15:27:46;24.33;;;10.47;;
21095;SDS011;10706;49.036;12.112;2023-03-01T15:30:17;26.40;;;11.53;;
21095;SDS011;10706;49.036;12.112;2023-03-01T15:35:52;26.33;;;11.53;;
21095;SDS011;10706;49.036;12.112;2023-03-01T15:38:30;27.50;;;12.47;;
21095;SDS011;10706;49.036;12.112;2023-03-01T15:41:23;29.87;;;11.50;;
21095;SDS011;10706;49.036;12.112;2023-03-01T15:46:59;23.80;;;10.97;;
21095;SDS011;10706;49.036;12.112;2023-03-01T15:52:03;25.10;;;11.30;;
21095;SDS011;10706;49.036;12.112;2023-03-01T15:54:38;27.63;;;11.70;;
21095;SDS011;10706;49.036;12.112;2023-03-01T15:57:05;29.30;;;12.33;;
21095;SDS011;10706;49.036;12.112;2023-03-01T15:59:39;28.70;;;11.63;;
21095;SDS011;10706;49.036;12.112;2023-03-01T16:02:10;27.77;;;11.60;;
21095;SDS011;10706;49.036;12.112;2023-03-01T16:04:37;27.03;;;11.33;;
21095;SDS011;10706;49.036;12.112;2023-03-01T16:07:03;26.57;;;10.10;;
21095;SDS011;10706;49.036;12.112;2023-03-01T16:09:29;23.73;;;11.20;;
21095;SDS011;10706;49.036;12.112;2023-03-01T16:11:55;26.37;;;11.07;;
21095;SDS011;10706;49.036;12.112;2023-03-01T16:14:21;28.40;;;12.00;;
21095;SDS011;10706;49.036;12.112;2023-03-01T16:16:47;26.27;;;11.33;;
21095;SDS011;10706;49.036;12.112;2023-03-01T16:19:14;20.30;;;7.30;;
21095;SDS011;10706;49.036;12.112;2023-03-01T16:21:40;29.50;;;11.20;;
21095;SDS011;10706;49.036;12.112;2023-03-01T16:24:07;27.40;;;11.33;;
21095;SDS011;10706;49.036;12.112;2023-03-01T16:26:34;25.93;;;11.13;;
21095;SDS011;10706;49.036;12.112;2023-03-01T16:29:01;21.87;;;9.03;;
21095;SDS011;10706;49.036;12.112;2023-03-01T16:31:27;23.03;;;8.30;;
21095;SDS011;10706;49.036;12.112;2023-03-01T16:33:54;27.30;;;11.03;;
21095;SDS011;10706;49.036;12.112;2023-03-01T16:36:21;22.43;;;9.90;;
21095;SDS011;10706;49.036;12.112;2023-03-01T16:38:49;27.03;;;11.73;;
21095;SDS011;10706;49.036;12.112;2023-03-01T16:41:17;23.30;;;9.83;;
21095;SDS011;10706;49.036;12.112;2023-03-01T16:43:45;29.00;;;12.23;;
21095;SDS011;10706;49.036;12.112;2023-03-01T16:46:13;23.57;;;10.33;;